Time;durP1;ratioP1;P1;durP2;ratioP2;P2;SDS_P1;SDS_P2;PMS_P1;PMS_P2;Temp;Humidity;BMP_temperature;BMP_pressure;BME280_temperature;BME280_humidity;BME280_pressure;Samples;Min_cycle;Max_cycle;Signal;HPM_P1;HPM_P2
2022/11/02 00:00:46;;;;;;;13.80;8.73;;;;;;;12.87;74.00;100359.56;4319958;33;33980;-78
2022/11/02 00:03:14;;;;;;;16.92;8.88;;;;;;;13.07;73.47;100366.41;4320088;33;33181;-75
2022/11/02 00:05:41;;;;;;;15.48;8.82;;;;;;;12.77;74.34;100356.69;4334027;33;34876;-77
2022/11/02 00:08:09;;;;;;;13.52;8.57;;;;;;;12.89;74.31;100365.59;4320652;33;33883;-79
2022/11/02 00:10:36;;;;;;;16.12;9.40;;;;;;;12.84;74.44;100353.78;4320290;33;34741;-77
2022/11/02 00:13:04;;;;;;;13.43;8.68;;;;;;;12.68;75.25;100369.06;4334255;33;33324;-78
2022/11/02 00:15:33;;;;;;;13.62;7.82;;;;;;;12.68;75.35;100367.16;4319622;33;34779;-79
2022/11/02 00:18:03;;;;;;;14.38;8.73;;;;;;;12.66;75.52;100366.59;4320872;33;34196;-78
2022/11/02 00:20:36;;;;;;;16.70;8.32;;;;;;;12.74;74.86;100370.78;4321251;33;34633;-77
2022/11/02 00:23:06;;;;;;;14.13;8.07;;;;;;;12.48;75.89;100369.53;4320091;33;33972;-76
2022/11/02 00:25:37;;;;;;;16.87;9.60;;;;;;;12.70;74.96;100365.03;4321254;33;34926;-78
2022/11/02 00:28:05;;;;;;;20.12;9.35;;;;;;;12.25;77.13;100357.72;4333751;33;34316;-78
2022/11/02 00:30:33;;;;;;;17.42;8.50;;;;;;;12.72;74.95;100362.87;4333096;33;34137;-77
2022/11/02 00:33:00;;;;;;;17.48;9.35;;;;;;;12.94;73.81;100367.56;4333776;33;34413;-77
2022/11/02 00:35:28;;;;;;;14.02;9.30;;;;;;;13.02;73.38;100369.03;4320376;33;33999;-76
2022/11/02 00:37:56;;;;;;;16.40;8.88;;;;;;;12.76;74.33;100371.34;4332563;33;34350;-72
2022/11/02 00:40:23;;;;;;;17.00;8.25;;;;;;;12.98;73.22;100370.59;4337812;33;34761;-76
2022/11/02 00:42:51;;;;;;;16.55;9.35;;;;;;;12.73;74.24;100380.84;4339804;33;33488;-76
2022/11/02 00:45:19;;;;;;;13.95;8.43;;;;;;;12.50;75.17;100362.78;4327328;33;33763;-76
2022/11/02 00:47:47;;;;;;;15.50;9.23;;;;;;;12.79;74.06;100359.97;4333366;33;35075;-78
2022/11/02 00:50:15;;;;;;;16.55;9.05;;;;;;;12.68;74.45;100363.63;4339911;33;33773;-76
2022/11/02 00:52:43;;;;;;;16.12;8.95;;;;;;;12.81;73.95;100357.03;4337359;33;34073;-76
2022/11/02 00:55:11;;;;;;;17.45;9.30;;;;;;;12.67;74.47;100353.78;4338910;33;34553;-78
2022/11/02 00:57:40;;;;;;;14.95;9.38;;;;;;;13.04;72.80;100358.72;4340613;33;34174;-74
2022/11/02 01:00:09;;;;;;;14.70;8.98;;;;;;;13.00;72.74;100354.84;4332147;33;35165;-78
2022/11/02 01:02:37;;;;;;;15.38;8.23;;;;;;;13.08;71.93;100365.31;4331088;33;33389;-78
2022/11/02 01:05:06;;;;;;;13.38;8.52;;;;;;;13.09;71.63;100370.53;4333505;33;33828;-78
2022/11/02 01:07:33;;;;;;;15.00;8.80;;;;;;;12.91;72.37;100363.44;4334045;33;33905;-78
2022/11/02 01:10:01;;;;;;;15.55;9.13;;;;;;;12.96;72.24;100359.13;4319699;33;34299;-77
2022/11/02 01:12:28;;;;;;;13.68;8.13;;;;;;;12.80;72.96;100366.25;4320442;33;33038;-73
2022/11/02 01:14:56;;;;;;;13.62;8.98;;;;;;;13.02;72.13;100360.84;4333570;33;34869;-78
2022/11/02 01:17:23;;;;;;;17.35;8.77;;;;;;;13.17;71.41;100363.78;4333623;33;34157;-73
2022/11/02 01:19:51;;;;;;;14.87;8.93;;;;;;;12.82;72.78;100358.66;4319345;33;35010;-78
2022/11/02 01:22:18;;;;;;;14.40;8.93;;;;;;;12.51;73.90;100358.16;4320329;33;31944;-73
2022/11/02 01:24:46;;;;;;;18.15;9.15;;;;;;;12.34;74.70;100347.28;4332873;33;34090;-71
2022/11/02 01:27:13;;;;;;;15.82;9.43;;;;;;;12.66;73.67;100339.38;4333569;33;34186;-78
2022/11/02 01:29:42;;;;;;;14.93;8.52;;;;;;;12.45;74.60;100343.62;4333675;33;34786;-77
2022/11/02 01:32:10;;;;;;;17.05;9.48;;;;;;;12.67;74.55;100342.91;4333514;33;34450;-76
2022/11/02 01:34:37;;;;;;;15.93;8.98;;;;;;;12.65;74.10;100337.69;4332341;33;33547;-78
2022/11/02 01:37:05;;;;;;;19.00;9.85;;;;;;;13.04;72.71;100337.72;4306462;33;34299;-74
2022/11/02 01:39:32;;;;;;;16.98;9.52;;;;;;;12.85;73.39;100339.09;4319078;33;33947;-78
2022/11/02 01:42:00;;;;;;;18.30;10.77;;;;;;;13.10;72.66;100344.09;4305538;33;32943;-78
2022/11/02 01:44:34;;;;;;;16.62;9.73;;;;;;;13.07;72.57;100337.25;4319970;33;33895;-78
2022/11/02 01:47:06;;;;;;;17.50;8.43;;;;;;;12.67;74.39;100343.72;4320086;33;35225;-77
2022/11/02 01:49:36;;;;;;;14.18;8.63;;;;;;;12.91;73.76;100351.72;4333779;33;34779;-75
2022/11/02 01:52:10;;;;;;;18.15;9.57;;;;;;;13.01;73.42;100349.16;4319167;33;33339;-78
2022/11/02 01:54:45;;;;;;;18.33;10.23;;;;;;;12.53;75.05;100345.16;4320251;33;33626;-77
2022/11/02 01:57:16;;;;;;;18.23;10.60;;;;;;;12.21;76.66;100342.16;4308042;33;35104;-79
2022/11/02 01:59:56;;;;;;;16.50;9.65;;;;;;;12.34;76.45;100344.53;4318519;33;34801;-79
2022/11/02 02:02:26;;;;;;;16.45;9.40;;;;;;;12.72;75.24;100337.53;4333005;33;33634;-78
2022/11/02 02:05:06;;;;;;;17.75;10.80;;;;;;;12.39;76.25;100331.00;4320134;33;34989;-74
2022/11/02 02:07:37;;;;;;;17.27;10.55;;;;;;;12.89;74.20;100341.09;4332037;33;33582;-73
2022/11/02 02:10:06;;;;;;;20.42;10.38;;;;;;;13.02;73.72;100339.88;4320000;33;33952;-76
2022/11/02 02:12:35;;;;;;;20.40;10.45;;;;;;;12.72;74.96;100332.09;4319927;33;32082;-73
2022/11/02 02:15:02;;;;;;;19.77;10.85;;;;;;;12.26;77.21;100334.06;4332429;33;33981;-78
2022/11/02 02:17:46;;;;;;;18.08;9.80;;;;;;;12.48;76.54;100332.28;4320215;33;35022;-74
2022/11/02 02:20:19;;;;;;;15.50;9.90;;;;;;;12.75;75.76;100331.59;4333464;33;34493;-78
2022/11/02 02:23:07;;;;;;;16.17;9.07;;;;;;;12.94;74.76;100334.88;4332334;33;33670;-78
2022/11/02 02:25:49;;;;;;;19.52;10.75;;;;;;;12.49;76.45;100333.91;4332160;33;33780;-72
2022/11/02 02:28:35;;;;;;;16.85;9.85;;;;;;;12.59;76.37;100333.28;4331834;33;33942;-74
2022/11/02 02:31:33;;;;;;;15.07;9.68;;;;;;;12.89;75.09;100335.63;4319591;33;34476;-77
2022/11/02 02:34:10;;;;;;;18.95;10.23;;;;;;;13.22;73.43;100342.09;4331892;33;33327;-78
2022/11/02 02:36:48;;;;;;;17.08;9.70;;;;;;;13.02;73.80;100342.59;4319222;33;34024;-73
2022/11/02 02:39:23;;;;;;;18.37;10.63;;;;;;;12.63;75.79;100352.63;4319746;33;35060;-78
2022/11/02 02:41:57;;;;;;;14.80;8.98;;;;;;;12.38;76.78;100353.88;4332728;33;34053;-73
2022/11/02 02:44:28;;;;;;;20.15;10.57;;;;;;;12.58;76.14;100355.28;4319749;33;33633;-73
2022/11/02 02:46:58;;;;;;;16.98;9.48;;;;;;;12.87;74.77;100361.44;4331038;33;33909;-72
2022/11/02 02:49:50;;;;;;;16.70;10.25;;;;;;;12.71;75.27;100365.84;4319540;33;35164;-73
2022/11/02 02:52:19;;;;;;;14.13;8.85;;;;;;;12.85;75.14;100359.00;4319748;33;34357;-72
2022/11/02 02:54:48;;;;;;;18.27;10.50;;;;;;;12.89;74.68;100365.59;4319731;33;33611;-73
2022/11/02 02:57:18;;;;;;;15.93;9.48;;;;;;;13.14;73.37;100377.94;4320087;33;33732;-77
2022/11/02 02:59:49;;;;;;;17.45;10.38;;;;;;;12.71;74.96;100374.81;4319382;33;34942;-72
2022/11/02 03:02:24;;;;;;;15.30;9.43;;;;;;;12.84;74.72;100376.41;4330882;33;34121;-76
2022/11/02 03:04:52;;;;;;;16.80;10.10;;;;;;;12.75;75.16;100379.78;4319266;33;33760;-77
2022/11/02 03:07:24;;;;;;;19.52;10.30;;;;;;;12.65;75.57;100391.31;4332322;33;32489;-78
2022/11/02 03:10:11;;;;;;;15.98;8.95;;;;;;;12.64;75.65;100381.53;4322394;33;35145;-78
2022/11/02 03:12:55;;;;;;;19.05;10.38;;;;;;;12.69;75.44;100390.59;4334924;33;34797;-77
2022/11/02 03:15:58;;;;;;;20.00;9.88;;;;;;;12.79;75.32;100392.66;4333716;33;34411;-74
2022/11/02 03:19:01;;;;;;;16.08;9.88;;;;;;;13.03;74.39;100384.31;4324971;33;34045;-73
2022/11/02 03:21:40;;;;;;;16.37;9.65;;;;;;;12.92;74.72;100386.06;4334579;33;33907;-78
2022/11/02 03:24:19;;;;;;;16.17;9.60;;;;;;;13.09;74.05;100397.75;4311535;33;34762;-73
2022/11/02 03:27:06;;;;;;;16.55;9.68;;;;;;;12.99;74.18;100394.88;4318915;33;33476;-78
2022/11/02 03:29:55;;;;;;;16.20;10.45;;;;;;;13.20;73.50;100404.19;4319979;33;33949;-77
2022/11/02 03:32:41;;;;;;;17.80;10.55;;;;;;;12.60;75.66;100411.13;4320943;33;35075;-78
2022/11/02 03:35:18;;;;;;;19.15;10.55;;;;;;;12.55;76.52;100407.47;4320619;33;35294;-78
2022/11/02 03:38:04;;;;;;;14.95;9.77;;;;;;;12.66;75.24;100407.41;4333758;33;33322;-74
2022/11/02 03:40:36;;;;;;;19.83;10.48;;;;;;;12.95;74.47;100404.62;4321451;33;34238;-78
2022/11/02 03:43:04;;;;;;;18.52;10.38;;;;;;;12.50;75.93;100400.06;4321285;33;34257;-76
2022/11/02 03:45:37;;;;;;;16.92;10.52;;;;;;;12.51;76.07;100399.00;4321123;33;33840;-78
2022/11/02 03:48:07;;;;;;;16.45;10.55;;;;;;;12.39;77.14;100393.59;4320919;33;33496;-78
2022/11/02 03:50:37;;;;;;;16.98;10.75;;;;;;;12.67;76.19;100394.62;4319084;33;34748;-74
2022/11/02 03:53:17;;;;;;;20.40;11.35;;;;;;;12.69;76.33;100396.03;4321066;33;35063;-74
2022/11/02 03:55:51;;;;;;;19.50;10.75;;;;;;;12.58;76.86;100391.50;4321243;33;34836;-77
2022/11/02 03:58:19;;;;;;;19.63;11.07;;;;;;;13.00;74.76;100412.88;4334183;33;34625;-75
2022/11/02 04:00:51;;;;;;;16.98;11.10;;;;;;;12.99;74.48;100408.50;4334152;33;34154;-78
2022/11/02 04:03:21;;;;;;;19.62;11.50;;;;;;;12.82;75.43;100407.66;4320945;33;33973;-77
2022/11/02 04:05:49;;;;;;;18.92;10.70;;;;;;;12.75;75.88;100413.28;4319597;33;34680;-76
2022/11/02 04:08:24;;;;;;;19.27;11.60;;;;;;;13.22;74.55;100421.13;4334284;33;34079;-77
2022/11/02 04:16:25;;;;;;;21.48;12.35;;;;;;;12.89;76.38;100425.50;4317568;33;33001;-75
2022/11/02 04:25:14;;;;;;;20.08;11.75;;;;;;;13.04;75.88;100429.53;4318673;33;33840;-74
2022/11/02 04:27:17;;;;;;;19.12;12.23;;;;;;;12.89;76.95;100436.41;4303931;33;34070;-74
2022/11/02 04:29:48;;;;;;;20.02;11.38;;;;;;;12.75;77.80;100440.50;4305100;33;33290;-73
2022/11/02 04:33:31;;;;;;;22.92;13.13;;;;;;;12.72;78.20;100433.66;4304498;33;34793;-74
2022/11/02 04:35:08;;;;;;;21.85;12.05;;;;;;;12.79;78.27;100441.69;4306779;33;34113;-78
2022/11/02 04:40:27;;;;;;;19.98;11.32;;;;;;;12.96;77.76;100432.66;4318725;33;33360;-78
2022/11/02 04:42:55;;;;;;;20.80;12.25;;;;;;;12.90;78.08;100438.03;4317822;33;33986;-78
2022/11/02 04:45:22;;;;;;;18.15;11.40;;;;;;;12.98;77.80;100436.81;4319527;33;35019;-77
2022/11/02 04:47:51;;;;;;;18.95;11.60;;;;;;;13.29;76.27;100440.84;4319428;33;35037;-78
2022/11/02 04:50:18;;;;;;;19.05;11.52;;;;;;;13.20;76.64;100445.06;4317046;33;33584;-73
2022/11/02 04:52:54;;;;;;;23.33;13.40;;;;;;;13.16;76.96;100443.09;4319571;33;33966;-74
2022/11/02 04:55:22;;;;;;;18.75;12.00;;;;;;;12.90;77.97;100448.13;4318210;33;34059;-73
2022/11/02 04:57:49;;;;;;;22.25;12.27;;;;;;;12.78;79.05;100448.19;4319581;33;34066;-75
2022/11/02 05:00:17;;;;;;;22.70;12.50;;;;;;;13.10;77.84;100445.72;4319424;33;33510;-77
2022/11/02 05:02:49;;;;;;;20.65;12.32;;;;;;;13.03;77.89;100449.69;4318909;33;33683;-75
2022/11/02 05:05:18;;;;;;;20.62;12.25;;;;;;;13.30;76.95;100447.13;4317126;33;34321;-73
2022/11/02 05:07:46;;;;;;;20.02;12.75;;;;;;;13.01;77.86;100444.47;4319278;33;34646;-73
2022/11/02 05:10:13;;;;;;;23.50;12.90;;;;;;;13.11;77.67;100450.09;4317033;33;34362;-77
2022/11/02 05:12:42;;;;;;;20.40;11.32;;;;;;;13.33;76.59;100446.66;4318594;33;34911;-78
2022/11/02 05:15:10;;;;;;;19.48;11.80;;;;;;;13.26;77.02;100438.62;4328400;33;34081;-79
2022/11/02 05:17:37;;;;;;;22.17;10.98;;;;;;;13.21;77.40;100454.06;4333748;33;33784;-75
2022/11/02 05:20:07;;;;;;;21.35;12.07;;;;;;;13.47;76.40;100452.56;4333631;33;34377;-77
2022/11/02 05:22:35;;;;;;;23.85;13.38;;;;;;;13.39;76.47;100447.53;4333551;33;33648;-74
2022/11/02 05:25:02;;;;;;;22.13;13.20;;;;;;;13.25;77.12;100441.59;4332515;33;33266;-78
2022/11/02 05:27:30;;;;;;;22.13;12.75;;;;;;;13.30;76.87;100458.88;4332613;33;34797;-73
2022/11/02 05:29:58;;;;;;;21.40;11.73;;;;;;;13.23;77.37;100449.19;4333475;33;34494;-74
2022/11/02 05:32:26;;;;;;;20.67;12.60;;;;;;;13.15;77.64;100461.31;4331651;33;33996;-74
2022/11/02 05:34:54;;;;;;;20.70;11.60;;;;;;;13.12;78.02;100459.09;4333099;33;34024;-75
2022/11/02 05:37:22;;;;;;;21.80;12.98;;;;;;;13.66;76.05;100455.84;4333693;33;34974;-72
2022/11/02 05:39:49;;;;;;;21.30;11.90;;;;;;;13.74;75.36;100450.75;4319414;33;34870;-76
2022/11/02 05:42:17;;;;;;;18.30;12.13;;;;;;;13.52;76.16;100456.19;4320240;33;33937;-74
2022/11/02 05:44:45;;;;;;;19.58;11.70;;;;;;;13.34;77.15;100440.09;4331376;33;34152;-73
2022/11/02 05:47:12;;;;;;;20.70;12.07;;;;;;;13.36;77.30;100445.31;4333616;33;35137;-73
2022/11/02 05:49:40;;;;;;;20.20;11.75;;;;;;;13.39;77.24;100448.38;4333273;33;32675;-72
2022/11/02 05:52:07;;;;;;;20.20;11.90;;;;;;;13.50;77.10;100446.63;4333267;33;33811;-73
2022/11/02 05:54:35;;;;;;;20.75;11.23;;;;;;;13.50;76.91;100435.72;4332874;33;33960;-74
2022/11/02 05:57:02;;;;;;;20.90;12.55;;;;;;;13.64;76.52;100442.44;4333387;33;34734;-74
2022/11/02 05:59:30;;;;;;;21.60;12.20;;;;;;;14.20;74.21;100441.50;4331642;33;34310;-75
2022/11/02 06:01:57;;;;;;;23.40;13.20;;;;;;;14.23;73.93;100439.06;4320024;33;33381;-72
2022/11/02 06:04:25;;;;;;;22.20;12.48;;;;;;;14.27;73.87;100442.94;4332383;33;35168;-73
2022/11/02 06:06:52;;;;;;;28.98;16.65;;;;;;;13.67;76.26;100441.09;4319201;33;33160;-72
2022/11/02 06:09:19;;;;;;;23.73;14.23;;;;;;;13.13;79.38;100441.66;4333364;33;34163;-73
2022/11/02 06:11:47;;;;;;;22.23;13.57;;;;;;;13.34;78.36;100443.66;4333360;33;34863;-74
2022/11/02 06:14:14;;;;;;;24.77;16.08;;;;;;;13.48;77.90;100446.06;4314653;33;165528;-72
2022/11/02 06:16:42;;;;;;;23.05;15.10;;;;;;;13.54;77.42;100440.41;4332333;33;33656;-73
2022/11/02 06:19:09;;;;;;;21.83;14.85;;;;;;;13.00;79.87;100444.72;4330169;33;33333;-72
2022/11/02 06:21:37;;;;;;;21.33;13.65;;;;;;;13.11;79.38;100449.28;4325562;33;34157;-73
2022/11/02 06:24:05;;;;;;;22.80;13.60;;;;;;;13.21;79.62;100462.22;4331958;33;33808;-71
2022/11/02 06:26:32;;;;;;;20.62;13.27;;;;;;;13.40;78.39;100471.81;4331873;33;34189;-69
2022/11/02 06:29:00;;;;;;;23.62;13.40;;;;;;;13.56;77.92;100474.75;4331106;33;34513;-71
2022/11/02 06:31:27;;;;;;;20.85;12.45;;;;;;;13.39;78.62;100472.91;4332187;33;33908;-70
2022/11/02 06:33:55;;;;;;;19.70;12.45;;;;;;;13.40;78.74;100471.00;4329960;33;34877;-71
2022/11/02 06:36:22;;;;;;;23.52;13.75;;;;;;;13.49;78.57;100473.03;4331275;33;34780;-71
2022/11/02 06:38:50;;;;;;;19.95;12.57;;;;;;;13.67;78.07;100479.28;4331840;33;33077;-70
2022/11/02 06:41:17;;;;;;;18.67;12.35;;;;;;;13.61;78.53;100485.75;4306694;33;33655;-69
2022/11/02 06:43:45;;;;;;;21.60;13.55;;;;;;;13.89;77.40;100498.41;4330563;33;33913;-70
2022/11/02 06:46:12;;;;;;;24.55;13.80;;;;;;;14.43;74.85;100497.72;4331634;33;32964;-69
2022/11/02 06:48:40;;;;;;;23.60;14.30;;;;;;;13.58;78.02;100503.44;4330056;33;33559;-71
2022/11/02 06:51:07;;;;;;;22.85;13.62;;;;;;;13.75;77.96;100503.41;4331027;33;34915;-70
2022/11/02 06:53:34;;;;;;;19.85;13.23;;;;;;;13.50;79.56;100501.97;4331717;33;33701;-70
2022/11/02 06:56:02;;;;;;;24.37;14.35;;;;;;;13.81;78.58;100501.59;4329110;33;34853;-73
2022/11/02 06:58:29;;;;;;;23.95;13.85;;;;;;;14.17;76.85;100500.16;4303681;33;34818;-71
2022/11/02 07:01:06;;;;;;;21.85;13.77;;;;;;;14.07;77.07;100486.38;4331384;33;33578;-70
2022/11/02 07:03:34;;;;;;;20.95;13.27;;;;;;;14.10;77.34;100485.84;4316165;33;34998;-70
2022/11/02 07:06:02;;;;;;;25.45;13.75;;;;;;;14.31;76.72;100487.75;4328777;33;34327;-70
2022/11/02 07:08:29;;;;;;;23.15;13.88;;;;;;;13.84;78.46;100485.50;4305785;33;32968;-70
2022/11/02 07:10:57;;;;;;;20.30;13.27;;;;;;;14.24;76.92;100492.59;4331071;33;33991;-69
2022/11/02 07:13:25;;;;;;;20.80;12.73;;;;;;;14.02;78.09;100492.59;4318022;33;35019;-71
2022/11/02 07:15:55;;;;;;;19.77;13.55;;;;;;;14.56;75.88;100483.69;4332169;33;34932;-71
2022/11/02 07:18:23;;;;;;;24.75;13.43;;;;;;;14.62;75.26;100484.53;4331142;33;33875;-72
2022/11/02 07:20:50;;;;;;;20.88;13.35;;;;;;;14.54;75.99;100489.38;4332075;33;34684;-71
2022/11/02 07:23:22;;;;;;;20.70;12.43;;;;;;;14.67;75.71;100490.09;4336109;33;34096;-74
2022/11/02 07:25:50;;;;;;;21.83;12.20;;;;;;;14.76;75.44;100494.81;4339456;33;33648;-72
2022/11/02 07:28:20;;;;;;;27.52;14.90;;;;;;;14.84;74.67;100490.78;4326534;33;33572;-72
2022/11/02 07:30:47;;;;;;;23.10;13.75;;;;;;;14.84;73.92;100492.69;4317886;33;33787;-70
2022/11/02 07:33:15;;;;;;;21.65;13.32;;;;;;;14.96;73.67;100493.34;4333112;33;34113;-73
2022/11/02 07:35:42;;;;;;;20.33;13.27;;;;;;;14.57;75.38;100488.06;4338469;33;34009;-72
2022/11/02 07:38:10;;;;;;;19.95;12.30;;;;;;;14.45;77.24;100496.38;4333403;33;33002;-73
2022/11/02 07:40:38;;;;;;;19.00;12.32;;;;;;;14.77;76.52;100501.94;4337195;33;33407;-75
2022/11/02 07:43:06;;;;;;;20.27;12.55;;;;;;;14.80;76.53;100500.59;4337010;33;33999;-73
2022/11/02 07:45:35;;;;;;;21.92;13.10;;;;;;;14.19;79.05;100503.44;4335599;33;32428;-72
2022/11/02 07:48:02;;;;;;;23.12;13.15;;;;;;;14.65;77.14;100500.44;4328919;33;33488;-72
2022/11/02 07:50:30;;;;;;;23.58;13.52;;;;;;;15.07;76.50;100506.00;4343226;33;33925;-73
2022/11/02 07:52:57;;;;;;;20.02;12.07;;;;;;;15.12;76.59;100497.87;4337138;33;34277;-71
2022/11/02 07:55:27;;;;;;;21.27;11.95;;;;;;;15.72;74.12;100501.34;4338414;33;34040;-71
2022/11/02 07:58:06;;;;;;;19.35;11.82;;;;;;;15.39;72.71;100491.50;4338740;33;34376;-75
2022/11/02 08:00:38;;;;;;;21.80;13.02;;;;;;;15.99;71.13;100492.16;4338041;33;34961;-70
2022/11/02 08:03:08;;;;;;;20.48;12.35;;;;;;;15.94;70.21;100495.72;4338200;33;33986;-72
2022/11/02 08:05:38;;;;;;;21.27;13.20;;;;;;;15.56;72.49;100502.28;4328912;33;34135;-78
2022/11/02 08:08:07;;;;;;;20.65;13.00;;;;;;;15.63;72.20;100491.13;4332761;33;33718;-76
2022/11/02 08:10:36;;;;;;;22.90;13.18;;;;;;;15.83;71.13;100494.00;4329890;33;34205;-69
2022/11/02 08:13:08;;;;;;;23.12;13.90;;;;;;;15.67;72.01;100503.19;4336884;33;33785;-71
2022/11/02 08:15:35;;;;;;;21.52;13.43;;;;;;;15.45;72.92;100501.41;4326280;33;34715;-74
2022/11/02 08:18:12;;;;;;;22.15;12.88;;;;;;;15.96;70.40;100495.41;4329174;33;33155;-75
2022/11/02 08:20:40;;;;;;;19.45;12.27;;;;;;;15.24;73.27;100503.16;4338108;33;34752;-73
2022/11/02 08:23:09;;;;;;;21.75;13.15;;;;;;;15.21;74.04;100492.75;4336613;33;35102;-71
2022/11/02 08:25:37;;;;;;;20.50;12.55;;;;;;;15.51;73.02;100496.78;4332348;33;34616;-72
2022/11/02 08:28:06;;;;;;;19.85;11.80;;;;;;;15.90;70.73;100494.59;4330535;33;33449;-73
2022/11/02 08:30:34;;;;;;;21.45;12.43;;;;;;;15.71;71.39;100494.22;4338625;33;34844;-74
2022/11/02 08:33:04;;;;;;;21.12;12.70;;;;;;;15.90;71.08;100494.59;4303783;33;34441;-70
2022/11/02 08:35:32;;;;;;;21.42;12.50;;;;;;;15.84;71.23;100492.91;4332079;33;34551;-76
2022/11/02 08:37:59;;;;;;;19.35;12.37;;;;;;;16.03;70.59;100501.50;4338353;33;34348;-74
2022/11/02 08:40:27;;;;;;;21.83;12.88;;;;;;;16.19;69.50;100499.62;4318621;33;33772;-72
2022/11/02 08:42:56;;;;;;;19.67;12.43;;;;;;;16.18;70.28;100504.28;4330949;33;33718;-73
2022/11/02 08:45:24;;;;;;;20.05;12.35;;;;;;;16.25;69.65;100503.22;4318971;33;33506;-80
2022/11/02 08:47:52;;;;;;;21.37;12.85;;;;;;;16.08;70.20;100495.22;4315364;33;33555;-73
2022/11/02 08:50:20;;;;;;;20.70;13.13;;;;;;;16.36;69.37;100499.44;4303015;33;33707;-75
2022/11/02 08:52:48;;;;;;;21.33;12.30;;;;;;;16.18;70.04;100500.75;4331672;33;35163;-74
2022/11/02 08:55:15;;;;;;;20.05;12.02;;;;;;;16.51;68.96;100496.72;4293429;33;33301;-72
2022/11/02 08:57:54;;;;;;;20.35;11.98;;;;;;;16.37;69.48;100493.69;4318188;33;34289;-74
2022/11/02 09:00:29;;;;;;;18.48;12.10;;;;;;;16.80;67.38;100491.63;4317116;33;33309;-77
2022/11/02 09:03:05;;;;;;;21.85;13.23;;;;;;;16.44;70.00;100485.22;4315195;33;34341;-73
2022/11/02 09:05:35;;;;;;;27.62;13.55;;;;;;;16.55;70.02;100489.62;4304303;33;33287;-73
2022/11/02 09:08:06;;;;;;;19.08;12.30;;;;;;;16.32;70.25;100490.91;4316781;33;33378;-70
2022/11/02 09:10:35;;;;;;;21.77;12.07;;;;;;;16.81;69.45;100490.53;4318087;33;34565;-73
2022/11/02 09:13:04;;;;;;;19.15;12.10;;;;;;;16.94;68.03;100488.34;4305106;33;33605;-73
2022/11/02 09:15:36;;;;;;;19.48;12.15;;;;;;;17.32;66.26;100486.97;4313891;33;33968;-80
2022/11/02 09:18:04;;;;;;;19.83;12.77;;;;;;;16.74;68.99;100487.19;4314607;33;33276;-74
2022/11/02 09:20:33;;;;;;;19.20;12.32;;;;;;;16.61;69.97;100490.47;4315972;33;33783;-80
2022/11/02 09:23:00;;;;;;;18.87;11.38;;;;;;;16.76;69.42;100490.50;4311566;33;35030;-74
2022/11/02 09:25:28;;;;;;;18.25;11.55;;;;;;;16.83;68.99;100484.78;4315475;33;34040;-77
2022/11/02 09:27:56;;;;;;;18.85;11.48;;;;;;;16.79;69.15;100484.47;4316087;33;33271;-73
2022/11/02 09:30:24;;;;;;;21.05;12.00;;;;;;;16.68;70.06;100479.25;4316532;33;33792;-74
2022/11/02 09:33:03;;;;;;;16.92;10.35;;;;;;;16.87;69.20;100483.12;4314479;33;34073;-72
2022/11/02 09:35:36;;;;;;;18.52;11.10;;;;;;;16.85;68.31;100479.84;4315169;33;34424;-74
2022/11/02 09:38:04;;;;;;;19.20;11.27;;;;;;;16.21;69.17;100478.28;4317243;33;33330;-84
2022/11/02 09:40:43;;;;;;;21.50;11.85;;;;;;;16.54;69.38;100482.50;4313811;33;34924;-81
2022/11/02 09:43:13;;;;;;;17.80;10.90;;;;;;;17.08;68.08;100485.88;4315514;33;34150;-83
2022/11/02 09:46:07;;;;;;;23.17;12.00;;;;;;;17.17;68.16;100479.59;4315611;33;35444;-83
2022/11/02 09:48:39;;;;;;;19.52;12.25;;;;;;;17.19;67.66;100480.13;4314941;33;33409;-73
2022/11/02 09:51:15;;;;;;;17.90;11.10;;;;;;;16.66;70.03;100478.69;4315831;33;34774;-83
2022/11/02 09:54:08;;;;;;;17.23;10.57;;;;;;;16.01;72.47;100478.22;4315871;33;33925;-80
2022/11/02 09:56:43;;;;;;;21.05;11.95;;;;;;;16.54;70.15;100477.03;4313598;33;34590;-83
2022/11/02 09:59:14;;;;;;;15.93;10.05;;;;;;;16.72;69.45;100474.87;4316181;33;33263;-75
2022/11/02 10:02:17;;;;;;;16.83;10.43;;;;;;;16.90;69.15;100477.09;4314136;33;33797;-81
2022/11/02 10:04:57;;;;;;;19.45;11.38;;;;;;;17.00;68.29;100474.37;4296068;33;33791;-83
2022/11/02 10:07:55;;;;;;;23.87;11.80;;;;;;;17.08;68.10;100470.25;4315532;33;33858;-83
2022/11/02 10:10:33;;;;;;;20.42;11.90;;;;;;;17.08;68.38;100466.69;4316996;33;33516;-82
2022/11/02 10:13:07;;;;;;;19.00;11.75;;;;;;;17.58;67.23;100479.53;4313507;33;34056;-83
2022/11/02 10:15:47;;;;;;;20.57;11.97;;;;;;;18.15;64.66;100471.97;4325091;33;34212;-85
2022/11/02 10:18:20;;;;;;;17.40;10.95;;;;;;;18.04;65.27;100479.41;4316434;33;34668;-74
2022/11/02 10:20:52;;;;;;;16.35;10.55;;;;;;;17.97;65.48;100478.06;4313864;33;33425;-74
2022/11/02 10:23:51;;;;;;;20.77;11.00;;;;;;;18.04;64.76;100473.91;4306423;33;34646;-71
2022/11/02 10:26:31;;;;;;;17.37;10.15;;;;;;;17.97;65.22;100465.19;4317532;33;35128;-71
2022/11/02 10:29:10;;;;;;;16.50;10.32;;;;;;;18.26;64.08;100467.22;4316683;33;33916;-74
2022/11/02 10:31:38;;;;;;;21.17;11.55;;;;;;;17.80;65.91;100464.66;4304105;33;33583;-71
2022/11/02 10:34:20;;;;;;;16.58;10.15;;;;;;;18.11;65.86;100459.06;4330066;33;34046;-73
2022/11/02 10:37:06;;;;;;;18.58;11.25;;;;;;;18.19;64.77;100466.72;4329410;33;35011;-73
2022/11/02 10:39:54;;;;;;;19.12;11.27;;;;;;;18.64;63.95;100462.06;4329989;33;33873;-73
2022/11/02 10:42:50;;;;;;;21.10;11.77;;;;;;;18.68;64.22;100460.37;4327252;33;33729;-72
2022/11/02 10:45:39;;;;;;;17.42;11.02;;;;;;;18.99;63.44;100465.69;4330232;33;34084;-71
2022/11/02 10:48:19;;;;;;;16.92;10.35;;;;;;;19.19;63.19;100467.44;4329253;33;34143;-83
2022/11/02 10:51:07;;;;;;;18.05;10.23;;;;;;;19.09;63.73;100468.34;4330553;33;34776;-77
2022/11/02 10:53:41;;;;;;;17.30;10.32;;;;;;;18.62;65.58;100461.53;4316089;33;33523;-73
2022/11/02 10:56:20;;;;;;;15.38;8.65;;;;;;;19.14;63.36;100462.81;4317864;33;34414;-73
2022/11/02 10:58:54;;;;;;;15.88;9.23;;;;;;;19.71;61.94;100462.28;4327550;33;33774;-76
2022/11/02 11:01:22;;;;;;;17.97;9.87;;;;;;;19.83;59.86;100465.47;4330607;33;34032;-79
2022/11/02 11:04:00;;;;;;;15.52;9.30;;;;;;;20.40;58.44;100465.56;4328281;33;34360;-73
2022/11/02 11:06:35;;;;;;;15.13;9.45;;;;;;;20.16;58.24;100463.66;4315280;33;32830;-71
2022/11/02 11:09:06;;;;;;;15.65;9.50;;;;;;;19.80;59.51;100460.53;4316073;33;33637;-71
2022/11/02 11:11:36;;;;;;;15.52;8.85;;;;;;;19.77;59.35;100463.87;4316926;33;33795;-74
2022/11/02 11:14:07;;;;;;;16.75;8.98;;;;;;;20.45;57.68;100466.31;4315900;33;33624;-73
2022/11/02 11:16:58;;;;;;;13.32;9.00;;;;;;;20.84;57.07;100469.88;4315577;33;33839;-71
2022/11/02 11:19:49;;;;;;;13.60;8.88;;;;;;;20.22;58.18;100465.22;4326152;33;34143;-70
2022/11/02 11:22:26;;;;;;;15.98;8.65;;;;;;;20.03;58.46;100453.38;4330300;33;34703;-70
2022/11/02 11:25:09;;;;;;;14.27;8.77;;;;;;;20.09;59.18;100457.69;4315425;33;33464;-71
2022/11/02 11:27:57;;;;;;;11.50;8.02;;;;;;;19.93;59.28;100470.00;4329858;33;33752;-74
2022/11/02 11:30:30;;;;;;;13.57;8.75;;;;;;;20.04;58.23;100463.25;4330804;33;33023;-73
2022/11/02 11:33:19;;;;;;;16.73;9.30;;;;;;;21.10;56.96;100475.78;4330954;33;34159;-71
2022/11/02 11:35:48;;;;;;;14.32;8.25;;;;;;;20.03;57.75;100464.37;4317525;33;32674;-73
2022/11/02 11:38:19;;;;;;;13.98;9.00;;;;;;;20.16;58.27;100468.34;4324084;33;34225;-74
2022/11/02 11:40:52;;;;;;;15.32;8.75;;;;;;;20.31;58.11;100470.09;4333361;33;34287;-76
2022/11/02 11:43:24;;;;;;;14.98;9.88;;;;;;;19.83;58.36;100473.72;4338709;33;33833;-74
2022/11/02 11:46:00;;;;;;;14.75;9.80;;;;;;;19.79;58.81;100475.41;4329648;33;33476;-75
2022/11/02 11:48:49;;;;;;;21.42;10.27;;;;;;;19.42;59.73;100468.63;4327537;33;33346;-74